Time;durP1;ratioP1;P1;durP2;ratioP2;P2;SDS_P1;SDS_P2;PMS_P1;PMS_P2;Temp;Humidity;BMP_temperature;BMP_pressure;BME280_temperature;BME280_humidity;BME280_pressure;Samples;Min_cycle;Max_cycle;Signal;HPM_P1;HPM_P2
2024/01/26 00:05:01;;;;;;;8.00;5.47;;;;;10.60;101855.00;;;;10800665;24;20237;-80
2024/01/26 00:10:04;;;;;;;9.23;6.07;;;;;10.60;101852.00;;;;9970033;29;20237;-79
2024/01/26 00:15:06;;;;;;;7.73;6.93;;;;;10.60;101846.00;;;;9949631;29;20230;-79
2024/01/26 00:20:09;;;;;;;9.60;7.47;;;;;10.60;101855.00;;;;9958706;29;20928;-79
2024/01/26 00:25:11;;;;;;;12.03;7.73;;;;;10.50;101843.00;;;;9948190;29;20249;-79
2024/01/26 00:30:14;;;;;;;9.63;8.43;;;;;10.40;101838.00;;;;9967664;29;20235;-79
2024/01/26 00:35:16;;;;;;;11.03;8.60;;;;;10.30;101840.00;;;;9977475;29;20323;-79
2024/01/26 00:40:18;;;;;;;9.43;8.43;;;;;10.20;101832.00;;;;9974743;29;20240;-80
2024/01/26 00:45:20;;;;;;;13.77;10.20;;;;;10.20;101825.00;;;;9967795;29;20241;-80
2024/01/26 00:50:22;;;;;;;11.73;10.20;;;;;10.30;101832.00;;;;9952900;29;20279;-79
2024/01/26 00:55:29;;;;;;;17.20;10.50;;;;;10.40;101835.00;;;;9959026;29;20275;-79
2024/01/26 01:00:30;;;;;;;11.00;9.03;;;;;10.50;101837.00;;;;9972795;29;20229;-81
2024/01/26 01:05:32;;;;;;;10.63;7.60;;;;;10.60;101820.00;;;;9958474;29;20238;-79
2024/01/26 01:10:36;;;;;;;8.10;7.03;;;;;10.70;101817.00;;;;9966480;29;20869;-79
2024/01/26 01:15:40;;;;;;;8.77;6.67;;;;;10.70;101810.00;;;;9970146;29;20226;-80
2024/01/26 01:20:42;;;;;;;8.17;6.50;;;;;10.50;101786.00;;;;9966324;29;20672;-80
2024/01/26 01:25:44;;;;;;;10.80;6.37;;;;;10.40;101796.00;;;;9978867;29;20226;-80
2024/01/26 01:30:46;;;;;;;7.17;5.53;;;;;10.40;101803.00;;;;9966929;29;21621;-79
2024/01/26 01:35:48;;;;;;;7.40;5.87;;;;;10.40;101807.00;;;;9970053;29;20579;-78
2024/01/26 01:40:50;;;;;;;9.97;6.03;;;;;10.50;101801.00;;;;9953102;29;20268;-79
2024/01/26 01:45:53;;;;;;;7.40;5.63;;;;;10.60;101800.00;;;;9956073;29;20340;-80
2024/01/26 01:50:54;;;;;;;8.10;6.37;;;;;10.70;101806.00;;;;9967154;29;20321;-78
2024/01/26 01:55:59;;;;;;;9.97;6.30;;;;;10.80;101814.00;;;;9968370;29;20333;-78
2024/01/26 02:01:01;;;;;;;7.87;6.43;;;;;10.80;101781.00;;;;9973010;29;20237;-80
2024/01/26 02:06:03;;;;;;;11.33;7.27;;;;;10.80;101772.00;;;;9964799;29;20451;-80
2024/01/26 02:11:05;;;;;;;9.33;7.03;;;;;10.70;101765.00;;;;9967496;29;20247;-80
2024/01/26 02:16:07;;;;;;;10.57;6.70;;;;;10.70;101745.00;;;;9969631;29;21009;-81
2024/01/26 02:21:14;;;;;;;10.57;7.60;;;;;10.70;101750.00;;;;9961936;29;20237;-81
2024/01/26 02:26:16;;;;;;;9.33;6.87;;;;;10.60;101741.00;;;;9965137;29;20248;-79
2024/01/26 02:31:18;;;;;;;10.63;6.60;;;;;10.50;101734.00;;;;9976920;29;20325;-80
2024/01/26 02:36:23;;;;;;;11.10;6.93;;;;;10.50;101707.00;;;;9967000;29;20277;-80
2024/01/26 02:41:25;;;;;;;9.70;6.87;;;;;10.50;101727.00;;;;9970522;29;20240;-80
2024/01/26 02:46:27;;;;;;;7.60;6.50;;;;;10.50;101696.00;;;;9962819;29;20253;-80
2024/01/26 02:51:29;;;;;;;8.23;6.20;;;;;10.40;101710.00;;;;9961565;29;20725;-80
2024/01/26 02:56:31;;;;;;;8.80;6.70;;;;;10.40;101715.00;;;;9960372;29;20237;-80
2024/01/26 03:01:33;;;;;;;9.03;6.20;;;;;10.40;101709.00;;;;9964135;29;20241;-80
2024/01/26 03:06:34;;;;;;;8.67;6.30;;;;;10.50;101709.00;;;;9976897;29;20236;-81
2024/01/26 03:11:38;;;;;;;6.77;5.70;;;;;10.50;101712.00;;;;9945915;29;20883;-81
2024/01/26 03:16:40;;;;;;;8.63;6.20;;;;;10.60;101694.00;;;;9954044;29;20237;-80
2024/01/26 03:21:43;;;;;;;9.50;6.47;;;;;10.50;101697.00;;;;9971247;29;20225;-80
2024/01/26 03:26:45;;;;;;;10.73;7.87;;;;;10.50;101693.00;;;;10000394;29;20249;-84
2024/01/26 03:31:47;;;;;;;11.43;7.63;;;;;10.50;101676.00;;;;9982188;29;20246;-86
2024/01/26 03:36:49;;;;;;;16.50;7.93;;;;;10.60;101664.00;;;;9978206;29;20233;-87
2024/01/26 03:41:51;;;;;;;11.53;8.30;;;;;10.50;101668.00;;;;10002886;29;20222;-85
2024/01/26 03:46:53;;;;;;;10.47;7.63;;;;;10.50;101666.00;;;;9995121;29;20283;-86
2024/01/26 03:51:55;;;;;;;12.10;9.13;;;;;10.60;101648.00;;;;9973716;29;20225;-84
2024/01/26 03:56:57;;;;;;;13.73;10.27;;;;;10.60;101656.00;;;;9980384;29;20290;-86
2024/01/26 04:01:58;;;;;;;11.53;9.10;;;;;10.60;101641.00;;;;9997772;29;20257;-84
2024/01/26 04:07:01;;;;;;;13.53;9.20;;;;;10.70;101641.00;;;;9997307;29;20237;-85
2024/01/26 04:12:04;;;;;;;12.67;8.40;;;;;10.70;101645.00;;;;10078252;24;20265;-89
2024/01/26 04:17:06;;;;;;;11.17;9.03;;;;;10.60;101634.00;;;;10036000;29;20228;-87
2024/01/26 04:22:08;;;;;;;12.53;9.60;;;;;10.60;101614.00;;;;10042878;29;20254;-87
2024/01/26 04:27:10;;;;;;;13.40;9.63;;;;;10.50;101604.00;;;;10029159;29;20285;-90
2024/01/26 04:32:11;;;;;;;12.40;9.60;;;;;10.40;101587.00;;;;10000584;29;20228;-88
2024/01/26 04:37:13;;;;;;;12.57;10.10;;;;;10.40;101593.00;;;;9998114;29;20311;-83
2024/01/26 04:42:15;;;;;;;15.77;11.23;;;;;10.40;101588.00;;;;9996196;29;20708;-82
2024/01/26 04:47:17;;;;;;;16.20;12.03;;;;;10.40;101587.00;;;;9972432;29;20665;-81
2024/01/26 04:52:19;;;;;;;13.87;11.10;;;;;10.50;101569.00;;;;9967393;29;20923;-82
2024/01/26 04:57:21;;;;;;;14.97;10.30;;;;;10.50;101571.00;;;;9986666;29;20845;-82
2024/01/26 05:02:23;;;;;;;13.67;9.23;;;;;10.50;101563.00;;;;9976864;29;20696;-82
2024/01/26 05:07:25;;;;;;;15.80;9.03;;;;;10.60;101574.00;;;;9954898;29;20711;-80
2024/01/26 05:12:27;;;;;;;14.83;10.10;;;;;10.50;101568.00;;;;9996104;29;20301;-82
2024/01/26 05:17:29;;;;;;;13.57;9.13;;;;;10.50;101577.00;;;;9972188;29;20294;-81
2024/01/26 05:22:31;;;;;;;13.70;9.40;;;;;10.50;101563.00;;;;9962694;29;20747;-83
2024/01/26 05:27:34;;;;;;;10.40;8.27;;;;;10.40;101563.00;;;;9989411;29;20248;-82
2024/01/26 05:32:36;;;;;;;14.60;9.60;;;;;10.40;101583.00;;;;9986137;29;20921;-83
2024/01/26 05:37:44;;;;;;;13.47;9.33;;;;;10.40;101556.00;;;;9967357;29;20289;-84
2024/01/26 05:42:46;;;;;;;15.17;9.87;;;;;10.40;101563.00;;;;9990076;29;20290;-80
2024/01/26 05:47:48;;;;;;;16.30;10.43;;;;;10.40;101550.00;;;;9988877;29;20240;-83
2024/01/26 05:52:50;;;;;;;14.57;9.57;;;;;10.40;101538.00;;;;9969291;29;20237;-82
2024/01/26 05:57:52;;;;;;;11.40;9.30;;;;;10.40;101542.00;;;;9938804;29;20324;-82
2024/01/26 06:02:54;;;;;;;14.33;8.70;;;;;10.50;101524.00;;;;9957115;29;20784;-83
2024/01/26 06:07:56;;;;;;;13.70;9.70;;;;;10.50;101543.00;;;;9956998;29;20230;-83
2024/01/26 06:12:58;;;;;;;14.83;8.67;;;;;10.50;101541.00;;;;9968420;29;20236;-82
2024/01/26 06:18:00;;;;;;;14.90;9.20;;;;;10.50;101524.00;;;;9970103;29;20229;-81
2024/01/26 06:23:03;;;;;;;14.30;8.63;;;;;10.50;101512.00;;;;9951236;29;20225;-81
2024/01/26 06:28:05;;;;;;;13.23;8.40;;;;;10.60;101519.00;;;;9969702;29;20803;-79
2024/01/26 06:33:07;;;;;;;14.27;8.93;;;;;10.60;101522.00;;;;9965563;29;20320;-80
2024/01/26 06:38:09;;;;;;;9.13;8.23;;;;;10.60;101515.00;;;;9951675;29;20222;-84
2024/01/26 06:43:12;;;;;;;11.23;8.73;;;;;10.60;101514.00;;;;9979331;29;20317;-80
2024/01/26 06:48:13;;;;;;;16.00;9.23;;;;;10.60;101525.00;;;;9964066;29;20237;-81
2024/01/26 06:53:15;;;;;;;13.17;8.70;;;;;10.60;101515.00;;;;10002395;29;20757;-85
2024/01/26 06:58:17;;;;;;;13.33;8.13;;;;;10.60;101502.00;;;;10000869;29;20238;-87
2024/01/26 07:03:19;;;;;;;12.57;6.53;;;;;10.70;101516.00;;;;9971661;29;20237;-88
2024/01/26 07:08:21;;;;;;;11.40;7.97;;;;;10.70;101494.00;;;;9981705;29;20225;-88
2024/01/26 07:13:23;;;;;;;8.20;6.70;;;;;10.80;101505.00;;;;9986551;29;20311;-87
2024/01/26 07:18:25;;;;;;;10.67;7.70;;;;;10.80;101506.00;;;;9977383;29;20237;-85
2024/01/26 07:23:27;;;;;;;9.63;7.23;;;;;10.80;101515.00;;;;9971903;29;20290;-86
2024/01/26 07:28:29;;;;;;;12.13;8.33;;;;;10.90;101522.00;;;;9985858;29;20229;-88
2024/01/26 07:33:31;;;;;;;11.53;7.03;;;;;10.90;101522.00;;;;9989550;29;20281;-86
2024/01/26 07:38:33;;;;;;;14.03;8.27;;;;;11.00;101537.00;;;;9986444;29;20233;-84
2024/01/26 07:43:35;;;;;;;10.00;6.70;;;;;11.00;101524.00;;;;10002727;29;20236;-86
2024/01/26 07:48:37;;;;;;;7.77;6.67;;;;;11.10;101546.00;;;;10006836;29;20255;-83
2024/01/26 07:53:39;;;;;;;11.57;6.00;;;;;11.10;101561.00;;;;10978884;24;20251;-85
2024/01/26 07:58:41;;;;;;;8.40;5.97;;;;;11.20;101567.00;;;;10307749;24;20343;-84
2024/01/26 08:03:43;;;;;;;11.20;6.37;;;;;11.30;101572.00;;;;10035058;29;20225;-80
2024/01/26 08:08:47;;;;;;;10.27;5.80;;;;;11.30;101574.00;;;;10005975;29;20360;-80
2024/01/26 08:13:49;;;;;;;9.30;5.33;;;;;11.20;101577.00;;;;10009327;29;20225;-80
2024/01/26 08:18:51;;;;;;;8.73;5.50;;;;;11.20;101599.00;;;;10010080;29;20591;-81
2024/01/26 08:23:53;;;;;;;7.80;5.87;;;;;11.20;101601.00;;;;9990471;29;20271;-80
2024/01/26 08:28:55;;;;;;;8.13;5.40;;;;;11.20;101618.00;;;;10010619;29;20320;-81
2024/01/26 08:33:57;;;;;;;7.40;6.13;;;;;11.20;101624.00;;;;9995443;29;20290;-82
2024/01/26 08:38:59;;;;;;;9.63;5.50;;;;;11.30;101632.00;;;;9992013;29;20229;-81
2024/01/26 08:44:01;;;;;;;7.33;4.83;;;;;11.20;101639.00;;;;10012989;29;20228;-82
2024/01/26 08:49:03;;;;;;;10.93;5.70;;;;;11.30;101630.00;;;;10025060;29;20278;-81
2024/01/26 08:54:07;;;;;;;9.13;5.20;;;;;11.30;101645.00;;;;9990674;29;20229;-82
2024/01/26 08:59:09;;;;;;;13.27;5.77;;;;;11.40;101647.00;;;;10006585;29;20236;-81
2024/01/26 09:04:11;;;;;;;14.77;5.70;;;;;11.60;101647.00;;;;10022079;29;20297;-82
2024/01/26 09:09:22;;;;;;;11.10;5.22;;;;;11.90;101642.00;;;;10011144;29;20253;-81
2024/01/26 09:14:25;;;;;;;9.85;5.40;;;;;11.70;101642.00;;;;9982432;29;20237;-80
2024/01/26 09:19:26;;;;;;;9.23;5.33;;;;;11.60;101657.00;;;;9986394;29;20304;-80
2024/01/26 09:24:29;;;;;;;11.85;4.68;;;;;11.40;101684.00;;;;10001668;29;20237;-80
2024/01/26 09:29:31;;;;;;;3.17;1.83;;;;;11.10;101719.00;;;;10005083;29;20245;-80
2024/01/26 09:34:33;;;;;;;5.60;2.30;;;;;10.80;101710.00;;;;9998292;29;20240;-80
2024/01/26 09:39:35;;;;;;;8.00;2.87;;;;;11.00;101759.00;;;;9983919;29;20339;-80
2024/01/26 09:44:37;;;;;;;6.40;2.30;;;;;10.90;101776.00;;;;10003788;29;21986;-80
2024/01/26 09:49:54;;;;;;;7.90;2.80;;;;;11.10;101777.00;;;;9985972;29;20238;-81
2024/01/26 09:54:59;;;;;;;8.30;3.50;;;;;11.50;101807.00;;;;10002848;29;20732;-80
2024/01/26 10:00:02;;;;;;;6.45;2.35;;;;;11.50;101819.00;;;;10005571;29;20330;-80
2024/01/26 10:05:05;;;;;;;10.67;2.50;;;;;11.60;101852.00;;;;10018780;29;20297;-81
2024/01/26 10:10:08;;;;;;;6.70;2.77;;;;;11.50;101869.00;;;;10018217;29;20237;-80
2024/01/26 10:15:10;;;;;;;7.38;2.38;;;;;11.50;101879.00;;;;10001770;29;20229;-80
2024/01/26 10:20:14;;;;;;;6.33;1.93;;;;;11.10;101894.00;;;;9988719;29;20308;-81
2024/01/26 10:25:17;;;;;;;8.77;2.40;;;;;10.90;101925.00;;;;9990544;29;20311;-88
2024/01/26 10:30:19;;;;;;;3.70;1.20;;;;;10.90;101885.00;;;;9988586;29;20297;-84
2024/01/26 10:35:23;;;;;;;3.63;1.20;;;;;11.30;101971.00;;;;9988065;29;20229;-86
2024/01/26 10:40:28;;;;;;;3.57;1.07;;;;;11.20;101988.00;;;;9997042;29;20237;-85
2024/01/26 10:45:30;;;;;;;3.97;1.50;;;;;11.30;101990.00;;;;9987381;29;20232;-84
2024/01/26 10:50:35;;;;;;;7.67;2.37;;;;;11.00;102000.00;;;;9991403;29;20251;-87
2024/01/26 10:55:38;;;;;;;3.60;1.03;;;;;10.50;102011.00;;;;10006071;29;20316;-85
2024/01/26 11:00:40;;;;;;;8.67;1.57;;;;;10.50;102036.00;;;;9989752;29;20259;-83
2024/01/26 11:05:48;;;;;;;3.43;1.03;;;;;11.50;102023.00;;;;10000411;29;20239;-88
2024/01/26 11:10:52;;;;;;;5.63;1.35;;;;;13.00;102023.00;;;;9992859;29;20228;-85
2024/01/26 11:16:04;;;;;;;8.95;1.98;;;;;13.00;101971.00;;;;10015356;29;20232;-88
2024/01/26 11:21:06;;;;;;;4.90;1.27;;;;;13.60;102057.00;;;;10003065;29;20319;-85
2024/01/26 11:26:15;;;;;;;5.85;1.77;;;;;13.00;102063.00;;;;9991685;29;20233;-85
2024/01/26 11:31:28;;;;;;;5.72;1.63;;;;;13.00;102090.00;;;;10016741;29;20240;-85
2024/01/26 11:36:32;;;;;;;3.78;1.15;;;;;12.40;102097.00;;;;10002904;29;20264;-80
2024/01/26 11:41:34;;;;;;;5.65;1.55;;;;;12.70;102096.00;;;;9987125;29;20273;-79
2024/01/26 11:46:40;;;;;;;6.55;1.45;;;;;12.70;102133.00;;;;9982906;29;20229;-79
2024/01/26 11:51:42;;;;;;;7.88;1.42;;;;;11.90;102101.00;;;;10006316;29;20880;-79
2024/01/26 11:56:46;;;;;;;2.60;0.98;;;;;11.80;102159.00;;;;9996562;29;20269;-79
2024/01/26 12:01:48;;;;;;;2.45;0.93;;;;;11.70;102168.00;;;;9983568;29;20391;-79
2024/01/26 12:06:50;;;;;;;5.35;0.90;;;;;11.80;102180.00;;;;10004081;29;20695;-78
2024/01/26 12:11:53;;;;;;;4.33;1.60;;;;;11.80;102190.00;;;;10008984;29;20875;-79
2024/01/26 12:16:55;;;;;;;7.63;1.40;;;;;11.80;102205.00;;;;10001531;29;20217;-79
2024/01/26 12:22:14;;;;;;;4.00;1.00;;;;;11.40;102181.00;;;;10017052;29;20232;-80
2024/01/26 13:18:32;;;;;;;7.47;2.07;;;;;10.60;102347.00;;;;12612794;22;7958532;-77
2024/01/26 13:23:55;;;;;;;6.27;1.50;;;;;10.60;102342.00;;;;12908116;22;20785;-79
2024/01/26 13:28:57;;;;;;;4.47;1.57;;;;;10.60;102332.00;;;;12955321;22;20212;-78
2024/01/26 13:33:59;;;;;;;8.20;1.40;;;;;10.60;102359.00;;;;12930690;22;20279;-78
2024/01/26 13:39:04;;;;;;;6.70;1.73;;;;;10.70;102356.00;;;;12896797;22;20188;-79
2024/01/26 13:44:07;;;;;;;3.70;1.00;;;;;10.60;102350.00;;;;12906704;22;20200;-78
2024/01/26 13:49:09;;;;;;;8.60;1.73;;;;;10.80;102372.00;;;;12922515;22;20196;-77
2024/01/26 13:54:13;;;;;;;5.90;2.20;;;;;10.70;102387.00;;;;12978267;22;20185;-79
2024/01/26 13:59:16;;;;;;;7.37;1.70;;;;;10.10;102400.00;;;;12889478;22;20189;-78
2024/01/26 14:04:19;;;;;;;7.53;1.80;;;;;9.80;102396.00;;;;12885464;22;20900;-78
2024/01/26 14:09:21;;;;;;;6.10;1.40;;;;;9.70;102408.00;;;;12937988;22;20239;-78
2024/01/26 14:14:24;;;;;;;6.73;2.13;;;;;9.80;102403.00;;;;12937196;22;20196;-79
2024/01/26 14:19:26;;;;;;;3.13;1.07;;;;;9.90;102427.00;;;;12911838;22;20276;-78
2024/01/26 14:24:29;;;;;;;3.77;0.90;;;;;9.70;102447.00;;;;12885073;22;20211;-77
2024/01/26 14:29:31;;;;;;;9.83;1.83;;;;;9.40;102427.00;;;;12913206;22;20188;-79
2024/01/26 14:34:33;;;;;;;7.87;2.17;;;;;9.00;102470.00;;;;12936145;22;20197;-79
2024/01/26 14:39:38;;;;;;;8.10;1.40;;;;;8.60;102463.00;;;;12939022;22;20283;-79
2024/01/26 14:44:40;;;;;;;6.30;1.03;;;;;8.50;102488.00;;;;12887617;22;20512;-79
2024/01/26 14:49:41;;;;;;;6.37;2.20;;;;;8.60;102504.00;;;;12963563;22;20192;-79
2024/01/26 14:54:45;;;;;;;8.97;1.87;;;;;8.70;102503.00;;;;12937174;22;20193;-79
2024/01/26 14:59:46;;;;;;;7.87;1.63;;;;;8.70;102511.00;;;;12910782;22;20196;-79
2024/01/26 15:04:48;;;;;;;6.47;1.67;;;;;8.60;102532.00;;;;12883144;22;20224;-78
2024/01/26 15:09:50;;;;;;;7.23;1.30;;;;;8.40;102525.00;;;;12962408;22;20207;-79
2024/01/26 15:14:52;;;;;;;6.17;1.57;;;;;8.30;102551.00;;;;12931902;22;20193;-79
2024/01/26 15:19:54;;;;;;;5.50;1.97;;;;;8.30;102546.00;;;;12924109;22;20192;-80
2024/01/26 15:24:59;;;;;;;7.47;1.67;;;;;8.20;102557.00;;;;12890703;22;20203;-79
2024/01/26 15:30:03;;;;;;;5.53;1.93;;;;;8.20;102571.00;;;;12922589;22;20737;-78
2024/01/26 15:35:05;;;;;;;6.50;1.90;;;;;8.20;102576.00;;;;12904614;22;20197;-79
2024/01/26 15:40:07;;;;;;;6.17;1.30;;;;;8.10;102600.00;;;;12929937;22;20266;-80
2024/01/26 15:45:10;;;;;;;10.07;2.47;;;;;8.00;102606.00;;;;12879565;22;20219;-77
2024/01/26 15:50:13;;;;;;;8.63;1.90;;;;;7.90;102620.00;;;;12929724;22;20672;-79
2024/01/26 15:55:15;;;;;;;7.93;2.00;;;;;7.70;102622.00;;;;12880401;22;20272;-79
2024/01/26 16:00:18;;;;;;;13.67;3.40;;;;;7.60;102634.00;;;;12926577;22;20299;-77
2024/01/26 16:05:20;;;;;;;7.97;1.70;;;;;7.40;102628.00;;;;12898809;22;20711;-77
2024/01/26 16:10:22;;;;;;;5.87;2.23;;;;;7.30;102634.00;;;;12905838;22;20640;-79
2024/01/26 16:15:24;;;;;;;6.30;1.87;;;;;7.20;102643.00;;;;12906829;22;20207;-77
2024/01/26 16:20:25;;;;;;;5.40;1.50;;;;;7.00;102648.00;;;;12896866;22;20201;-78
2024/01/26 16:25:27;;;;;;;12.17;1.97;;;;;6.90;102660.00;;;;12897159;22;20882;-78
2024/01/26 16:30:33;;;;;;;8.63;1.70;;;;;6.80;102669.00;;;;12903798;22;20204;-76
2024/01/26 16:35:35;;;;;;;13.47;3.03;;;;;6.60;102671.00;;;;12905207;22;20864;-76
2024/01/26 16:40:37;;;;;;;15.87;5.60;;;;;6.40;102679.00;;;;12881466;22;20192;-76
2024/01/26 16:45:39;;;;;;;13.30;5.00;;;;;6.30;102686.00;;;;12875230;22;20220;-77
2024/01/26 16:50:41;;;;;;;19.03;3.27;;;;;6.10;102696.00;;;;12844104;22;20189;-77
2024/01/26 16:55:43;;;;;;;10.43;2.37;;;;;5.90;102708.00;;;;12845329;23;20645;-80
2024/01/26 17:00:47;;;;;;;9.23;2.27;;;;;5.70;102707.00;;;;12954260;22;20257;-79
2024/01/26 17:05:51;;;;;;;10.50;2.57;;;;;5.50;102713.00;;;;12905031;22;20195;-79
2024/01/26 17:10:54;;;;;;;13.43;3.37;;;;;5.30;102728.00;;;;12881626;22;20933;-81
2024/01/26 17:15:56;;;;;;;12.00;3.10;;;;;5.20;102725.00;;;;12926150;22;20636;-80
2024/01/26 17:20:59;;;;;;;7.97;2.57;;;;;5.20;102725.00;;;;12905247;22;20193;-80
2024/01/26 17:26:02;;;;;;;15.77;4.60;;;;;5.20;102735.00;;;;12934263;22;21155;-80
2024/01/26 17:31:04;;;;;;;14.63;4.93;;;;;5.10;102742.00;;;;12960227;22;20629;-79
2024/01/26 17:36:06;;;;;;;10.00;3.53;;;;;5.00;102740.00;;;;12910686;22;20272;-79
2024/01/26 17:41:08;;;;;;;8.17;2.90;;;;;5.00;102746.00;;;;12911675;22;20192;-80
2024/01/26 17:46:13;;;;;;;13.43;2.60;;;;;4.90;102755.00;;;;12937106;22;20224;-79
2024/01/26 17:51:15;;;;;;;13.37;3.00;;;;;4.70;102756.00;;;;12935080;22;20558;-79
2024/01/26 17:56:18;;;;;;;10.63;2.47;;;;;4.60;102778.00;;;;12847470;23;20645;-79
2024/01/26 18:01:20;;;;;;;14.30;2.30;;;;;4.50;102783.00;;;;12911007;22;20266;-78
2024/01/26 18:06:22;;;;;;;14.33;3.30;;;;;4.50;102785.00;;;;12912575;22;20204;-78
2024/01/26 18:11:24;;;;;;;7.20;2.60;;;;;4.40;102800.00;;;;12911951;22;20620;-79
2024/01/26 18:16:26;;;;;;;10.57;3.93;;;;;4.50;102801.00;;;;12885878;22;20625;-77
2024/01/26 18:21:32;;;;;;;11.10;4.20;;;;;4.40;102812.00;;;;12907243;22;20227;-79
2024/01/26 18:26:34;;;;;;;11.43;3.20;;;;;4.30;102829.00;;;;12910961;22;20258;-79
2024/01/26 18:31:36;;;;;;;18.00;5.20;;;;;4.20;102829.00;;;;12963893;22;20263;-79
2024/01/26 18:36:37;;;;;;;17.50;5.03;;;;;4.10;102842.00;;;;12887197;22;20200;-80
2024/01/26 18:41:39;;;;;;;9.47;4.17;;;;;4.10;102839.00;;;;12905870;22;20192;-79
2024/01/26 18:46:41;;;;;;;19.53;5.93;;;;;4.10;102844.00;;;;12911426;22;20889;-79
2024/01/26 18:51:43;;;;;;;10.23;4.77;;;;;4.00;102842.00;;;;12937263;22;20207;-78
2024/01/26 18:56:45;;;;;;;18.30;4.10;;;;;4.10;102855.00;;;;12912293;22;20246;-79
2024/01/26 19:01:48;;;;;;;11.73;5.30;;;;;4.10;102858.00;;;;12910003;22;20193;-79
2024/01/26 19:06:52;;;;;;;14.60;5.13;;;;;4.10;102848.00;;;;12905705;22;20200;-78
2024/01/26 19:11:55;;;;;;;16.60;3.93;;;;;4.10;102850.00;;;;12900887;22;20195;-79
2024/01/26 19:16:57;;;;;;;15.17;4.13;;;;;4.10;102851.00;;;;12900469;22;20197;-83
2024/01/26 19:22:00;;;;;;;11.93;3.60;;;;;4.10;102864.00;;;;12907991;22;20192;-83
2024/01/26 19:27:03;;;;;;;12.93;3.60;;;;;4.00;102855.00;;;;12881267;22;20236;-84
2024/01/26 19:32:06;;;;;;;15.80;3.73;;;;;3.90;102864.00;;;;12905586;22;20276;-84
2024/01/26 19:37:09;;;;;;;13.63;4.10;;;;;3.90;102865.00;;;;12907825;22;20203;-85
2024/01/26 19:42:11;;;;;;;16.57;3.70;;;;;3.80;102871.00;;;;12882330;22;20232;-84
2024/01/26 19:47:13;;;;;;;17.03;4.43;;;;;3.80;102868.00;;;;12884680;22;20208;-83
2024/01/26 19:52:15;;;;;;;15.57;4.53;;;;;3.80;102884.00;;;;12932914;22;20188;-85
2024/01/26 19:57:16;;;;;;;18.60;5.90;;;;;3.70;102882.00;;;;12908493;22;20199;-84
2024/01/26 20:02:19;;;;;;;30.03;8.47;;;;;3.70;102884.00;;;;12909637;22;20723;-84
2024/01/26 20:07:22;;;;;;;21.70;8.20;;;;;3.60;102884.00;;;;12908054;22;20189;-84
2024/01/26 20:12:24;;;;;;;16.10;5.20;;;;;3.60;102887.00;;;;12910518;22;20231;-85
2024/01/26 20:17:26;;;;;;;16.80;4.73;;;;;3.50;102889.00;;;;12933830;22;20207;-84
2024/01/26 20:22:29;;;;;;;18.37;4.27;;;;;3.50;102879.00;;;;12933849;22;20225;-85
2024/01/26 20:27:31;;;;;;;12.00;4.23;;;;;3.50;102886.00;;;;12885525;22;20254;-85
2024/01/26 20:32:33;;;;;;;15.87;4.37;;;;;3.40;102887.00;;;;12933377;22;20185;-85
2024/01/26 20:37:35;;;;;;;22.33;4.60;;;;;3.40;102888.00;;;;12935152;22;20195;-86
2024/01/26 20:42:37;;;;;;;20.80;4.87;;;;;3.40;102881.00;;;;12910239;22;20192;-86
2024/01/26 20:47:39;;;;;;;13.23;4.27;;;;;3.40;102897.00;;;;12933240;22;20204;-83
2024/01/26 20:52:41;;;;;;;12.93;4.27;;;;;3.40;102887.00;;;;12924991;22;20192;-87
2024/01/26 20:57:50;;;;;;;18.13;4.70;;;;;3.40;102900.00;;;;12932772;22;20254;-87
2024/01/26 21:02:51;;;;;;;14.97;4.93;;;;;3.30;102895.00;;;;12902336;22;20247;-85
2024/01/26 21:07:56;;;;;;;16.53;4.60;;;;;3.30;102913.00;;;;12903028;22;20204;-86
2024/01/26 21:12:59;;;;;;;10.40;3.93;;;;;3.20;102910.00;;;;12955355;22;20681;-84
2024/01/26 21:18:01;;;;;;;15.77;4.83;;;;;3.20;102916.00;;;;12874031;22;20232;-86
2024/01/26 21:23:03;;;;;;;15.37;5.03;;;;;3.30;102911.00;;;;12887197;22;20188;-85
2024/01/26 21:28:08;;;;;;;11.47;4.40;;;;;3.30;102910.00;;;;12898722;22;20250;-86
2024/01/26 21:33:12;;;;;;;17.77;4.77;;;;;3.20;102926.00;;;;12888587;22;20193;-80
2024/01/26 21:38:15;;;;;;;13.57;3.83;;;;;3.10;102916.00;;;;12851066;22;20228;-79
2024/01/26 21:43:17;;;;;;;12.97;4.30;;;;;3.10;102915.00;;;;12954692;22;20234;-78
2024/01/26 21:48:22;;;;;;;11.73;4.17;;;;;3.10;102923.00;;;;12935324;22;20201;-79
2024/01/26 21:53:25;;;;;;;13.33;4.27;;;;;3.00;102919.00;;;;12885881;22;20224;-79
2024/01/26 21:58:27;;;;;;;10.70;4.50;;;;;3.00;102934.00;;;;12906128;22;20193;-78
2024/01/26 22:03:29;;;;;;;13.77;4.73;;;;;2.90;102925.00;;;;12936786;22;20192;-78
2024/01/26 22:08:31;;;;;;;19.00;5.70;;;;;2.70;102911.00;;;;12889350;22;20243;-78
2024/01/26 22:13:33;;;;;;;14.23;5.57;;;;;2.50;102924.00;;;;12936739;22;20196;-78
2024/01/26 22:18:35;;;;;;;22.53;6.67;;;;;2.50;102932.00;;;;12936091;22;20192;-79
2024/01/26 22:23:37;;;;;;;15.97;6.00;;;;;2.40;102940.00;;;;12934739;22;20528;-78
2024/01/26 22:28:39;;;;;;;18.40;6.00;;;;;2.50;102943.00;;;;12935682;22;20220;-77
2024/01/26 22:33:41;;;;;;;18.93;5.40;;;;;2.60;102943.00;;;;12934760;22;20242;-79
2024/01/26 22:38:43;;;;;;;21.57;7.50;;;;;2.60;102941.00;;;;12912652;22;20200;-78
2024/01/26 22:43:45;;;;;;;18.83;5.70;;;;;2.60;102942.00;;;;12884909;22;20211;-79
2024/01/26 22:48:48;;;;;;;12.93;5.10;;;;;2.60;102955.00;;;;12884823;22;21059;-78
2024/01/26 22:53:50;;;;;;;13.37;5.60;;;;;2.50;102955.00;;;;12960933;22;20250;-79
2024/01/26 22:58:52;;;;;;;16.60;5.60;;;;;2.50;102961.00;;;;12907931;22;20188;-77
2024/01/26 23:03:54;;;;;;;22.93;6.00;;;;;2.40;102965.00;;;;12908312;22;20248;-77
2024/01/26 23:08:56;;;;;;;17.70;5.57;;;;;2.30;102970.00;;;;12866637;22;20219;-77
2024/01/26 23:13:58;;;;;;;17.30;5.67;;;;;2.20;102952.00;;;;12924202;22;20242;-79
2024/01/26 23:19:00;;;;;;;14.70;5.50;;;;;2.30;102970.00;;;;12933324;22;20296;-78
2024/01/26 23:24:02;;;;;;;10.53;4.07;;;;;2.40;102975.00;;;;12887387;22;20292;-79
2024/01/26 23:29:04;;;;;;;13.67;4.50;;;;;2.30;102972.00;;;;12872041;22;20189;-79
2024/01/26 23:34:06;;;;;;;18.30;4.83;;;;;2.30;102963.00;;;;12930237;22;20196;-78
2024/01/26 23:39:08;;;;;;;12.77;4.60;;;;;2.20;102976.00;;;;12908957;22;20780;-79
2024/01/26 23:44:10;;;;;;;16.37;4.47;;;;;2.20;102978.00;;;;12962637;22;20201;-78
2024/01/26 23:49:13;;;;;;;15.50;5.63;;;;;2.10;102981.00;;;;12963596;22;20220;-78
2024/01/26 23:54:15;;;;;;;21.83;5.47;;;;;2.10;102976.00;;;;12912547;22;20196;-79
2024/01/26 23:59:19;;;;;;;17.33;5.50;;;;;2.10;102989.00;;;;12913110;22;20189;-80
